Aérodrome :
LOGIN :

S'inscrire | Disclaimer

   EN    FR    IT 

 










Légende :    VFR   VFR Marginal   IFR   IFR Intensif   IFR Très Intensif
Visi : 
Plafond : 
>= 8 km
>= 3000ft
5 à 8 km
1000 à 3000 ft
1500m à 5 km
500 à 1000 ft
800 à 1500m
200 à 500 ft
< 800m
< 200 ft
Symboles :   Orages  Brouillard  Fortes neiges  Fortes précipitations  Vent > 20 kt
SIGMETs :   Divers  Orages  Givrage  Turbulence  Onde Orograph.  Cendres Volcan.







- Altitude de l'aérodrome : 14 ft
- Code IATA : BRE


EDDW - Bremen Neuenland

DERNIER METAR :
  • 210720Z 31015KT 6000 BKN004 14/13 Q1007 BECMG BKN005

METARs EXPIRÉS :
  • 210650Z 31015KT 6000 -SHRA BKN004 14/14 Q1007 BECMG BKN005
  • 210620Z 31013KT 4000 -SHRA BKN004 14/14 Q1006 BECMG 5000 BKN005
  • 210550Z 31012KT 5000 -SHRA BKN005 14/14 Q1006 TEMPO 4500 BKN004
  • 210520Z 30011KT 6000 -SHRA BKN004 14/13 Q1006 TEMPO 4500
  • 210450Z 31010KT 6000 FEW004 13/13 Q1006 RESHRA TEMPO 4500 SHRA BKN012

TAF TAF EDDW
Valide du 21 à 06h jusqu'au 22 à 06h UTC


210500Z 2106/2206 30010KT 8000 SCT004 BKN015
TEMPO 2106/2109 4000 -SHRA BKN004 SCT030CB
TEMPO 2109/2112 BKN006
TEMPO 2112/2118 BKN012
BECMG 2118/2120 BKN008
TEMPO 2122/2206 3000 -RA BR BKN004 OVC008
Pas de NOTAMs connus pour ce terrain.
1 SIGMET publié pour la FIR Bremen (EDWW) :
 
Orages noyés dans la masse
EDWW SIGMET 5 VALID 210600/210800 EDZF
EDWW BREMEN FIR EMBD TS OBS APRX 30NM WID LINE BTN N5338 E00933 - N5208 E00856 TOP FL340 MOV SSW NC=



MET'MAP, la Météo Aéronautique d'un coup d'oeil ! - Copyright ORBIFLY Décembre 2007 - Disclaimer

ORBIFLY MET'MAP TEAM :

Programmation & Développement : Alexandra Zaïnal
Conception & Développement : Baudouin d'Aumeries
Co-Programmation & Développement : Marc-Olivier Méhu
Soutien technique & logistique : Manuel Goepfert

Contact : metmap@orbifly.com




SOURCES & CREDITS :

   NOAA